ADDS METAR Data INFO
IDs: Format: Raw Decoded Include TAF

Data at: 0451 UTC 25 May 2018

METAR for:PADU (Dutch Harbor/Madsen, AK, US)
Text:PADU 250356Z 20003KT 5SM RA BR OVC030 06/04 A2956 RMK AO2 SLP013 P0010 T00560039
Temperature: 5.6°C ( 42°F)
Dewpoint: 3.9°C ( 39°F) [RH = 89%]
Pressure (altimeter):29.56 inches Hg (1001.1 mb) [Sea level pressure: 1001.3 mb]
Winds:from the SSW (200 degrees) at 3 MPH (3 knots; 1.5 m/s)
Visibility: 5 sm ( 8 km)
Ceiling:3000 feet AGL
Clouds: overcast cloud deck at 3000 feet AGL
Weather:RA BR (moderate rain, mist)
Text:PADU 250256Z 08003KT 10SM -RA SCT034 BKN041 OVC060 07/04 A2956 RMK AO2 SLP014 P0001 60008 T00670039 52003
Temperature: 6.7°C ( 44°F)
Dewpoint: 3.9°C ( 39°F) [RH = 82%]
Pressure (altimeter):29.56 inches Hg (1001.1 mb) [Sea level pressure: 1001.4 mb]
Winds:from the E (80 degrees) at 3 MPH (3 knots; 1.5 m/s)
Visibility:10 or more sm (16+ km)
Ceiling:4100 feet AGL
Clouds: scattered clouds at 3400 feet AGL, broken clouds at 4100 feet AGL, overcast cloud deck at 6000 feet AGL
Weather:-RA (light rain)
Text:PADU 250203Z 08006KT 10SM -RA BKN034 OVC043 07/04 A2956 RMK AO2 P0000
Temperature: 7.0°C ( 45°F)
Dewpoint: 4.0°C ( 39°F) [RH = 81%]
Pressure (altimeter):29.56 inches Hg (1001.1 mb)
Winds:from the E (80 degrees) at 7 MPH (6 knots; 3.1 m/s)
Visibility:10 or more sm (16+ km)
Ceiling:3400 feet AGL
Clouds: broken clouds at 3400 feet AGL, overcast cloud deck at 4300 feet AGL
Weather:-RA (light rain)
Text:PADU 250156Z 07006KT 10SM -RA FEW013 BKN021 OVC034 07/04 A2956 RMK AO2 SLP014 CS P0002 T00670044
Temperature: 6.7°C ( 44°F)
Dewpoint: 4.4°C ( 40°F) [RH = 85%]
Pressure (altimeter):29.56 inches Hg (1001.1 mb) [Sea level pressure: 1001.4 mb]
Winds:from the ENE (70 degrees) at 7 MPH (6 knots; 3.1 m/s)
Visibility:10 or more sm (16+ km)
Ceiling:2100 feet AGL
Clouds: few clouds at 1300 feet AGL, broken clouds at 2100 feet AGL, overcast cloud deck at 3400 feet AGL
Weather:-RA (light rain)
Text:PADU 250141Z 08008KT 10SM -RA FEW013 BKN021 OVC034 07/03 A2956 RMK AO2 CS P0002
Temperature: 7.0°C ( 45°F)
Dewpoint: 3.0°C ( 37°F) [RH = 76%]
Pressure (altimeter):29.56 inches Hg (1001.1 mb)
Winds:from the E (80 degrees) at 9 MPH (8 knots; 4.1 m/s)
Visibility:10 or more sm (16+ km)
Ceiling:2100 feet AGL
Clouds: few clouds at 1300 feet AGL, broken clouds at 2100 feet AGL, overcast cloud deck at 3400 feet AGL
Weather:-RA (light rain)
Text:PADU 250057Z 36008KT 10SM -RA BKN021 OVC034 07/04 A2956 RMK AO2 CS P0000
Temperature: 7.0°C ( 45°F)
Dewpoint: 4.0°C ( 39°F) [RH = 81%]
Pressure (altimeter):29.56 inches Hg (1001.1 mb)
Winds:from the N (360 degrees) at 9 MPH (8 knots; 4.1 m/s)
Visibility:10 or more sm (16+ km)
Ceiling:2100 feet AGL
Clouds: broken clouds at 2100 feet AGL, overcast cloud deck at 3400 feet AGL
Weather:-RA (light rain)
Text:PADU 250056Z 36008KT 9SM -RA SCT013 BKN022 OVC028 07/04 A2956 RMK AO2 SLP013 CS P0005 T00670044
Temperature: 6.7°C ( 44°F)
Dewpoint: 4.4°C ( 40°F) [RH = 85%]
Pressure (altimeter):29.56 inches Hg (1001.1 mb) [Sea level pressure: 1001.3 mb]
Winds:from the N (360 degrees) at 9 MPH (8 knots; 4.1 m/s)
Visibility: 9 sm ( 14 km)
Ceiling:2200 feet AGL
Clouds: scattered clouds at 1300 feet AGL, broken clouds at 2200 feet AGL, overcast cloud deck at 2800 feet AGL
Weather:-RA (light rain)
Text:PADU 250039Z 35010KT 9SM -RA SCT013 BKN022 OVC028 07/05 A2956 RMK AO2 CS P0005
Temperature: 7.0°C ( 45°F)
Dewpoint: 5.0°C ( 41°F) [RH = 87%]
Pressure (altimeter):29.56 inches Hg (1001.1 mb)
Winds:from the N (350 degrees) at 12 MPH (10 knots; 5.1 m/s)
Visibility: 9 sm ( 14 km)
Ceiling:2200 feet AGL
Clouds: scattered clouds at 1300 feet AGL, broken clouds at 2200 feet AGL, overcast cloud deck at 2800 feet AGL
Weather:-RA (light rain)
Text:PADU 250038Z 35010KT 9SM -RA SCT013 OVC022 07/05 A2956 RMK AO2 CS P0005
Temperature: 7.0°C ( 45°F)
Dewpoint: 5.0°C ( 41°F) [RH = 87%]
Pressure (altimeter):29.56 inches Hg (1001.1 mb)
Winds:from the N (350 degrees) at 12 MPH (10 knots; 5.1 m/s)
Visibility: 9 sm ( 14 km)
Ceiling:2200 feet AGL
Clouds: scattered clouds at 1300 feet AGL, overcast cloud deck at 2200 feet AGL
Weather:-RA (light rain)
Text:PADU 250024Z 32009KT 8SM -RA OVC022 07/04 A2956 RMK AO2 CS P0004
Temperature: 7.0°C ( 45°F)
Dewpoint: 4.0°C ( 39°F) [RH = 81%]
Pressure (altimeter):29.56 inches Hg (1001.1 mb)
Winds:from the NW (320 degrees) at 10 MPH (9 knots; 4.6 m/s)
Visibility: 8 sm ( 13 km)
Ceiling:2200 feet AGL
Clouds: overcast cloud deck at 2200 feet AGL
Weather:-RA (light rain)
Text:PADU 250011Z 08005KT 7SM RA OVC022 07/04 A2956 RMK AO2 CS P0002
Temperature: 7.0°C ( 45°F)
Dewpoint: 4.0°C ( 39°F) [RH = 81%]
Pressure (altimeter):29.56 inches Hg (1001.1 mb)
Winds:from the E (80 degrees) at 6 MPH (5 knots; 2.6 m/s)
Visibility: 7 sm ( 11 km)
Ceiling:2200 feet AGL
Clouds: overcast cloud deck at 2200 feet AGL
Weather:RA (moderate rain)
Text:PADU 250010Z 10006KT 7SM RA BKN022 BKN028 OVC034 07/04 A2956 RMK AO2 CS P0002
Temperature: 7.0°C ( 45°F)
Dewpoint: 4.0°C ( 39°F) [RH = 81%]
Pressure (altimeter):29.56 inches Hg (1001.1 mb)
Winds:from the E (100 degrees) at 7 MPH (6 knots; 3.1 m/s)
Visibility: 7 sm ( 11 km)
Ceiling:2200 feet AGL
Clouds: broken clouds at 2200 feet AGL, broken clouds at 2800 feet AGL, overcast cloud deck at 3400 feet AGL
Weather:RA (moderate rain)
Text:PADU 250003Z VRB04KT 10SM -RA OVC022 07/04 A2955 RMK AO2 P0000
Temperature: 7.0°C ( 45°F)
Dewpoint: 4.0°C ( 39°F) [RH = 81%]
Pressure (altimeter):29.55 inches Hg (1000.8 mb)
Winds:variable direction winds at 5 MPH (4 knots; 2.1 m/s)
Visibility:10 or more sm (16+ km)
Ceiling:2200 feet AGL
Clouds: overcast cloud deck at 2200 feet AGL
Weather:-RA (light rain)
Text:PADU 242356Z VRB06KT 8SM -RA SCT022 BKN030 BKN040 07/04 A2955 RMK AO2 RAE09B56 SLP012 VCSH NE AND NW CS P0000 60001 T00720044 10089 20061 51004
Temperature: 7.2°C ( 45°F)
Dewpoint: 4.4°C ( 40°F) [RH = 82%]
Pressure (altimeter):29.55 inches Hg (1000.8 mb) [Sea level pressure: 1001.2 mb]
Winds:variable direction winds at 7 MPH (6 knots; 3.1 m/s)
Visibility: 8 sm ( 13 km)
Ceiling:3000 feet AGL
Clouds: scattered clouds at 2200 feet AGL, broken clouds at 3000 feet AGL, broken clouds at 4000 feet AGL
Weather:-RA (light rain)
Text:PADU 242312Z 09005KT 10SM SCT022 BKN030 BKN040 08/04 A2955 RMK AO2 RAE09 VCSH NE AND NW CS P0000
Temperature: 8.0°C ( 46°F)
Dewpoint: 4.0°C ( 39°F) [RH = 76%]
Pressure (altimeter):29.55 inches Hg (1000.8 mb)
Winds:from the E (90 degrees) at 6 MPH (5 knots; 2.6 m/s)
Visibility:10 or more sm (16+ km)
Ceiling:3000 feet AGL
Clouds: scattered clouds at 2200 feet AGL, broken clouds at 3000 feet AGL, broken clouds at 4000 feet AGL
Text:PADU 242303Z VRB03KT 10SM -RA BKN020 BKN025 OVC030 08/04 A2955 RMK AO2 CS P0000
Temperature: 8.0°C ( 46°F)
Dewpoint: 4.0°C ( 39°F) [RH = 76%]
Pressure (altimeter):29.55 inches Hg (1000.8 mb)
Winds:variable direction winds at 3 MPH (3 knots; 1.5 m/s)
Visibility:10 or more sm (16+ km)
Ceiling:2000 feet AGL
Clouds: broken clouds at 2000 feet AGL, broken clouds at 2500 feet AGL, overcast cloud deck at 3000 feet AGL
Weather:-RA (light rain)
Text:PADU 242256Z 11004KT 10SM -RA BKN020 BKN025 OVC030 08/04 A2955 RMK AO2 SLP011 CS P0001 T00780039
Temperature: 7.8°C ( 46°F)
Dewpoint: 3.9°C ( 39°F) [RH = 76%]
Pressure (altimeter):29.55 inches Hg (1000.8 mb) [Sea level pressure: 1001.1 mb]
Winds:from the ESE (110 degrees) at 5 MPH (4 knots; 2.1 m/s)
Visibility:10 or more sm (16+ km)
Ceiling:2000 feet AGL
Clouds: broken clouds at 2000 feet AGL, broken clouds at 2500 feet AGL, overcast cloud deck at 3000 feet AGL
Weather:-RA (light rain)

TAF for:PADU (Dutch Harbor/Madsen, AK, US) issued at 2346 UTC 24 May 2018
Text:PADU 242346Z 2500/2524 VRB04KT P6SM -SHRA SCT020 OVC030
Forecast period:0000 to 0900 UTC 25 May 2018
Forecast type:FROM: standard forecast or significant change
Winds:variable direction winds at 5 MPH (4 knots; 2.1 m/s)
Visibility:6 or more sm (10+ km)
Ceiling:3000 feet AGL
Clouds: scattered clouds at 2000 feet AGL, overcast cloud deck at 3000 feet AGL
Weather:-SHRA (light rain showers)
Text:FM250900 02004KT P6SM -SHRA OVC025
Forecast period:0900 to 1800 UTC 25 May 2018
Forecast type:FROM: standard forecast or significant change
Winds:from the NNE (20 degrees) at 5 MPH (4 knots; 2.1 m/s)
Visibility:6 or more sm (10+ km)
Ceiling:2500 feet AGL
Clouds: overcast cloud deck at 2500 feet AGL
Weather:-SHRA (light rain showers)
Text:FM251800 36010KT P6SM OVC015
Forecast period:1800 UTC 25 May 2018 to 0000 UTC 26 May 2018
Forecast type:FROM: standard forecast or significant change
Winds:from the N (360 degrees) at 12 MPH (10 knots; 5.1 m/s)
Visibility:6 or more sm (10+ km)
Ceiling:1500 feet AGL
Clouds: overcast cloud deck at 1500 feet AGL